createdAt,value
2022-11-13T00:00:08.741Z,3.50
2022-11-13T00:02:35.906Z,4.00
2022-11-13T00:05:03.072Z,6.05
2022-11-13T00:07:30.201Z,3.90
2022-11-13T00:09:57.268Z,4.03
2022-11-13T00:12:24.405Z,4.70
2022-11-13T00:14:51.477Z,4.05
2022-11-13T00:17:18.653Z,5.00
2022-11-13T00:19:45.805Z,5.85
2022-11-13T00:22:12.912Z,8.07
2022-11-13T00:24:39.970Z,6.20
2022-11-13T00:27:07.121Z,5.53
2022-11-13T00:29:34.185Z,7.07
2022-11-13T00:32:01.315Z,5.20
2022-11-13T00:37:15.708Z,5.68
2022-11-13T00:39:42.786Z,5.10
2022-11-13T00:42:09.879Z,6.40
2022-11-13T00:44:37.045Z,5.55
2022-11-13T00:47:04.195Z,5.57
2022-11-13T00:49:31.296Z,4.60
2022-11-13T00:52:00.177Z,5.70
2022-11-13T00:54:27.319Z,4.93
2022-11-13T00:56:54.428Z,5.25
2022-11-13T00:59:21.509Z,5.07
2022-11-13T01:01:48.702Z,4.90
2022-11-13T01:04:15.864Z,4.72
2022-11-13T01:06:42.986Z,4.95
2022-11-13T01:09:10.069Z,5.07
2022-11-13T01:11:37.137Z,5.85
2022-11-13T01:14:04.205Z,3.60
2022-11-13T01:16:31.336Z,5.40
2022-11-13T01:18:58.448Z,4.05
2022-11-13T01:21:27.251Z,4.32
2022-11-13T01:23:54.791Z,7.28
2022-11-13T01:26:24.200Z,21.83
2022-11-13T01:28:51.369Z,26.02
2022-11-13T01:31:19.597Z,35.38
2022-11-13T01:33:47.553Z,18.10
2022-11-13T01:36:16.212Z,9.23
2022-11-13T01:38:43.275Z,6.97
2022-11-13T01:41:21.831Z,4.30
2022-11-13T01:43:50.433Z,6.50
2022-11-13T01:46:23.736Z,4.25
2022-11-13T01:48:52.343Z,4.13
2022-11-13T01:51:25.236Z,6.85
2022-11-13T01:53:52.826Z,4.63
2022-11-13T01:56:20.172Z,4.45
2022-11-13T01:58:49.836Z,4.68
2022-11-13T02:01:17.084Z,3.60
2022-11-13T02:03:44.208Z,4.85
2022-11-13T02:06:11.318Z,7.38
2022-11-13T02:08:38.839Z,3.97
2022-11-13T02:11:05.997Z,4.07
2022-11-13T02:13:33.245Z,3.40
2022-11-13T02:16:00.537Z,4.60
2022-11-13T02:18:28.416Z,3.60
2022-11-13T02:20:55.649Z,3.67
2022-11-13T02:23:30.719Z,3.20
2022-11-13T02:25:58.108Z,3.13
2022-11-13T02:28:25.459Z,3.75
2022-11-13T02:30:52.894Z,3.85
2022-11-13T02:33:24.735Z,4.10
2022-11-13T02:35:51.922Z,6.43
2022-11-13T02:38:19.051Z,2.92
2022-11-13T02:40:46.152Z,4.07
2022-11-13T02:43:13.253Z,5.13
2022-11-13T02:45:40.372Z,5.28
2022-11-13T02:48:07.737Z,3.15
2022-11-13T02:50:35.861Z,3.03
2022-11-13T02:53:03.466Z,3.35
2022-11-13T02:55:30.558Z,2.83
2022-11-13T02:57:57.613Z,4.93
2022-11-13T03:00:24.740Z,3.70
2022-11-13T03:02:52.012Z,2.38
2022-11-13T03:05:19.431Z,3.78
2022-11-13T03:07:46.580Z,3.47
2022-11-13T03:10:14.216Z,2.58
2022-11-13T03:12:41.466Z,2.58
2022-11-13T03:15:08.941Z,2.40
2022-11-13T03:17:36.082Z,2.35
2022-11-13T03:20:03.493Z,2.40
2022-11-13T03:22:30.576Z,2.95
2022-11-13T03:24:57.651Z,2.30
2022-11-13T03:27:24.792Z,2.40
2022-11-13T03:29:51.913Z,2.40
2022-11-13T03:32:19.019Z,3.67
2022-11-13T03:34:46.231Z,3.20
2022-11-13T03:37:13.320Z,2.33
2022-11-13T03:39:40.501Z,2.90
2022-11-13T03:42:07.607Z,3.08
2022-11-13T03:44:34.737Z,2.72
2022-11-13T03:47:01.875Z,3.90
2022-11-13T03:49:28.955Z,2.40
2022-11-13T03:51:56.050Z,2.58
2022-11-13T03:54:23.136Z,2.90
2022-11-13T03:56:50.224Z,3.20
2022-11-13T03:59:17.350Z,3.85
2022-11-13T04:01:44.550Z,3.10
2022-11-13T04:04:11.712Z,3.80
2022-11-13T04:06:38.801Z,3.40
2022-11-13T04:09:05.983Z,2.97
2022-11-13T04:11:33.450Z,2.97
2022-11-13T04:14:00.549Z,2.80
2022-11-13T04:16:27.689Z,3.30
2022-11-13T04:18:55.133Z,3.17
2022-11-13T04:21:22.205Z,3.72
2022-11-13T04:23:49.352Z,4.13
2022-11-13T04:26:16.436Z,3.95
2022-11-13T04:28:43.505Z,4.18
2022-11-13T04:31:10.616Z,3.25
2022-11-13T04:33:37.711Z,4.13
2022-11-13T04:36:04.864Z,4.07
2022-11-13T04:38:32.085Z,4.43
2022-11-13T04:41:17.961Z,4.00
2022-11-13T04:43:45.067Z,3.83
2022-11-13T04:46:12.133Z,5.72
2022-11-13T04:48:39.251Z,4.60
2022-11-13T04:51:06.479Z,5.75
2022-11-13T04:53:34.622Z,4.03
2022-11-13T04:56:01.709Z,3.65
2022-11-13T04:58:29.100Z,3.55
2022-11-13T05:00:56.438Z,6.03
2022-11-13T05:03:23.528Z,3.42
2022-11-13T05:05:50.623Z,4.07
2022-11-13T05:08:17.688Z,3.78
2022-11-13T05:10:44.807Z,3.78
2022-11-13T05:13:11.976Z,4.75
2022-11-13T05:15:39.063Z,3.63
2022-11-13T05:18:06.212Z,3.85
2022-11-13T05:20:33.320Z,4.68
2022-11-13T05:23:00.396Z,4.60
2022-11-13T05:25:27.507Z,4.30
2022-11-13T05:27:54.577Z,4.15
2022-11-13T05:30:21.647Z,4.55
2022-11-13T05:32:48.731Z,4.50
2022-11-13T05:35:15.878Z,4.20
2022-11-13T05:37:42.957Z,5.15
2022-11-13T05:40:10.446Z,4.47
2022-11-13T05:42:37.576Z,3.67
2022-11-13T05:45:04.748Z,4.47
2022-11-13T05:47:33.281Z,4.50
2022-11-13T05:50:00.361Z,4.13
2022-11-13T05:52:27.523Z,5.63
2022-11-13T05:54:54.602Z,6.70
2022-11-13T05:57:21.697Z,5.47
2022-11-13T05:59:48.883Z,5.80
2022-11-13T06:02:16.025Z,6.07
2022-11-13T06:04:43.225Z,6.57
2022-11-13T06:07:10.531Z,6.03
2022-11-13T06:09:37.612Z,5.38
2022-11-13T06:12:04.799Z,5.68
2022-11-13T06:14:31.893Z,5.82
2022-11-13T06:16:59.009Z,5.07
2022-11-13T06:19:26.101Z,5.55
2022-11-13T06:21:53.194Z,9.05
2022-11-13T06:24:20.530Z,6.00
2022-11-13T06:26:47.680Z,5.43
2022-11-13T06:29:14.777Z,4.47
2022-11-13T06:31:42.047Z,4.65
2022-11-13T06:34:09.155Z,4.43
2022-11-13T06:36:37.127Z,4.72
2022-11-13T06:39:08.519Z,5.47
2022-11-13T06:41:35.672Z,6.00
2022-11-13T06:44:03.658Z,8.23
2022-11-13T06:46:31.177Z,6.95
2022-11-13T06:48:58.586Z,4.63
2022-11-13T06:51:27.301Z,5.53
2022-11-13T06:53:54.419Z,7.25
2022-11-13T06:56:22.035Z,7.70
2022-11-13T06:58:49.188Z,7.18
2022-11-13T07:01:20.820Z,7.13
2022-11-13T07:03:48.175Z,5.70
2022-11-13T07:06:16.920Z,4.43
2022-11-13T07:08:44.332Z,5.50
2022-11-13T07:11:12.732Z,4.97
2022-11-13T07:13:39.982Z,5.00
2022-11-13T07:16:16.251Z,4.90
2022-11-13T07:18:43.920Z,4.72
2022-11-13T07:21:12.040Z,7.85
2022-11-13T07:23:43.376Z,5.47
2022-11-13T07:26:14.035Z,5.22
2022-11-13T07:28:41.185Z,6.90
2022-11-13T07:31:08.594Z,6.43
2022-11-13T07:33:36.006Z,5.03
2022-11-13T07:36:03.132Z,6.63
2022-11-13T07:38:30.736Z,5.95
2022-11-13T07:40:59.104Z,7.65
2022-11-13T07:43:26.208Z,6.30
2022-11-13T07:45:54.866Z,4.60
2022-11-13T07:48:22.734Z,4.35
2022-11-13T07:50:49.842Z,4.65
2022-11-13T07:53:17.569Z,6.35
2022-11-13T07:55:44.716Z,4.00
2022-11-13T07:58:12.001Z,5.70
2022-11-13T08:00:39.465Z,5.25
2022-11-13T08:03:10.562Z,5.30
2022-11-13T08:05:38.608Z,8.98
2022-11-13T08:08:06.293Z,4.57
2022-11-13T08:10:33.468Z,5.00
2022-11-13T08:13:04.840Z,4.70
2022-11-13T08:15:32.303Z,5.18
2022-11-13T08:18:00.329Z,4.57
2022-11-13T08:20:28.691Z,5.88
2022-11-13T08:23:02.756Z,5.32
2022-11-13T08:25:30.877Z,5.97
2022-11-13T08:27:58.038Z,3.97
2022-11-13T08:30:26.340Z,4.05
2022-11-13T08:32:53.687Z,3.40
2022-11-13T08:35:38.006Z,2.90
2022-11-13T08:38:10.999Z,3.83
2022-11-13T08:43:05.345Z,4.75
2022-11-13T08:45:32.491Z,3.80
2022-11-13T08:48:00.895Z,3.58
2022-11-13T08:50:28.951Z,3.15
2022-11-13T08:52:56.713Z,3.45
2022-11-13T08:55:24.155Z,5.35
2022-11-13T08:57:51.397Z,5.47
2022-11-13T09:00:18.697Z,2.80
2022-11-13T09:02:45.992Z,3.97
2022-11-13T09:05:13.198Z,5.45
2022-11-13T09:07:40.252Z,6.53
2022-11-13T09:10:07.720Z,9.05
2022-11-13T09:12:34.818Z,5.45
2022-11-13T09:15:01.942Z,6.03
2022-11-13T09:17:29.117Z,5.10
2022-11-13T09:19:59.512Z,4.07
2022-11-13T09:22:29.315Z,3.33
2022-11-13T09:24:56.478Z,7.50
2022-11-13T09:27:23.576Z,6.20
2022-11-13T09:29:55.353Z,4.85
2022-11-13T09:32:23.019Z,5.47
2022-11-13T09:34:50.122Z,4.28
2022-11-13T09:37:17.222Z,4.18
2022-11-13T09:39:44.290Z,5.25
2022-11-13T09:42:14.524Z,7.03
2022-11-13T09:44:45.740Z,3.90
2022-11-13T09:47:15.612Z,3.92
2022-11-13T09:49:45.822Z,3.78
2022-11-13T09:52:16.502Z,4.03
2022-11-13T09:54:43.668Z,3.88
2022-11-13T09:57:25.576Z,4.25
2022-11-13T09:59:56.578Z,4.35
2022-11-13T10:02:42.566Z,5.53
2022-11-13T10:05:23.703Z,4.30
2022-11-13T10:07:58.464Z,4.40
2022-11-13T10:10:37.473Z,3.40
2022-11-13T10:13:06.382Z,6.57
2022-11-13T10:15:33.860Z,3.20
2022-11-13T10:18:04.567Z,2.53
2022-11-13T10:20:44.399Z,2.72
2022-11-13T10:23:27.143Z,3.22
2022-11-13T10:28:49.601Z,2.97
2022-11-13T10:31:12.997Z,4.50
2022-11-13T10:33:40.172Z,2.65
2022-11-13T10:36:07.324Z,3.42
2022-11-13T10:38:39.112Z,2.38
2022-11-13T10:41:08.864Z,3.10
2022-11-13T10:43:36.448Z,2.60
2022-11-13T10:46:05.457Z,1.40
2022-11-13T10:48:34.121Z,2.85
2022-11-13T10:51:04.397Z,4.43
2022-11-13T10:53:39.274Z,2.70
2022-11-13T10:56:25.040Z,1.95
2022-11-13T10:59:10.891Z,1.80
2022-11-13T11:01:38.310Z,2.08
2022-11-13T11:04:06.482Z,3.53
2022-11-13T11:09:30.887Z,1.63
2022-11-13T11:12:17.274Z,1.95
2022-11-13T11:14:59.704Z,1.65
2022-11-13T11:17:30.151Z,1.67
2022-11-13T11:20:08.629Z,1.48
2022-11-13T11:22:37.828Z,2.25
2022-11-13T11:25:10.007Z,2.45
2022-11-13T11:27:51.808Z,1.90
2022-11-13T11:30:28.820Z,2.13
2022-11-13T11:33:06.981Z,2.13
2022-11-13T11:35:54.287Z,1.60
2022-11-13T11:38:30.870Z,5.80
2022-11-13T11:41:04.230Z,1.83
2022-11-13T11:43:34.804Z,2.78
2022-11-13T11:46:01.946Z,2.95
2022-11-13T11:48:31.246Z,2.58
2022-11-13T11:51:08.926Z,1.65
2022-11-13T11:53:39.144Z,3.75
2022-11-13T11:56:18.404Z,4.20
2022-11-13T11:58:52.079Z,2.70
2022-11-13T12:01:37.748Z,2.55
2022-11-13T12:04:17.011Z,2.30
2022-11-13T12:07:02.738Z,1.70
2022-11-13T12:09:36.256Z,2.92
2022-11-13T12:12:06.080Z,2.75
2022-11-13T12:14:33.129Z,2.05
2022-11-13T12:17:16.788Z,3.40
2022-11-13T12:19:50.377Z,5.25
2022-11-13T12:22:36.401Z,2.10
2022-11-13T12:25:13.927Z,1.83
2022-11-13T12:27:59.425Z,1.95
2022-11-13T12:30:41.465Z,3.03
2022-11-13T12:33:17.669Z,2.20
2022-11-13T12:35:47.001Z,2.45
2022-11-13T12:38:23.463Z,1.98
2022-11-13T12:41:03.138Z,4.32
2022-11-13T12:43:30.185Z,1.85
2022-11-13T12:45:59.399Z,2.22
2022-11-13T12:48:28.823Z,1.95
2022-11-13T12:51:00.962Z,1.67
2022-11-13T12:53:29.848Z,2.10
2022-11-13T12:56:01.684Z,3.08
2022-11-13T12:58:30.873Z,2.15
2022-11-13T13:01:02.628Z,1.92
2022-11-13T13:03:32.554Z,1.88
2022-11-13T13:06:05.664Z,2.30
2022-11-13T13:08:32.818Z,2.47
2022-11-13T13:10:59.965Z,2.90
2022-11-13T13:13:35.999Z,1.85
2022-11-13T13:16:04.073Z,1.90
2022-11-13T13:18:33.227Z,2.50
2022-11-13T13:21:03.228Z,2.10
2022-11-13T13:23:35.981Z,5.75
2022-11-13T13:28:31.743Z,2.97
2022-11-13T13:31:07.924Z,2.92
2022-11-13T13:33:40.876Z,2.55
2022-11-13T13:36:16.877Z,2.60
2022-11-13T13:39:06.951Z,2.88
2022-11-13T13:41:34.160Z,2.60
2022-11-13T13:44:01.231Z,2.30
2022-11-13T13:46:31.509Z,2.10
2022-11-13T13:49:09.502Z,2.80
2022-11-13T13:51:40.428Z,2.03
2022-11-13T13:54:09.137Z,2.65
2022-11-13T13:56:43.068Z,3.85
2022-11-13T13:59:17.686Z,2.53
2022-11-13T14:01:54.045Z,3.05
2022-11-13T14:04:22.364Z,1.95
2022-11-13T14:06:50.826Z,3.85
2022-11-13T14:09:22.658Z,2.13
2022-11-13T14:11:56.845Z,3.33
2022-11-13T14:14:24.841Z,2.53
2022-11-13T14:16:52.849Z,3.78
2022-11-13T14:19:20.061Z,3.15
2022-11-13T14:21:48.694Z,3.92
2022-11-13T14:24:21.897Z,2.03
2022-11-13T14:26:50.287Z,2.13
2022-11-13T14:29:22.948Z,2.78
2022-11-13T14:31:51.625Z,4.57
2022-11-13T14:34:20.472Z,2.88
2022-11-13T14:36:48.505Z,2.55
2022-11-13T14:39:25.597Z,2.00
2022-11-13T14:41:59.995Z,2.92
2022-11-13T14:44:31.894Z,3.08
2022-11-13T14:47:06.662Z,4.38
2022-11-13T14:49:35.329Z,3.55
2022-11-13T14:52:02.815Z,3.67
2022-11-13T14:55:08.173Z,4.60
2022-11-13T14:57:24.169Z,7.10
2022-11-13T14:59:51.272Z,7.35
2022-11-13T15:02:20.180Z,5.30
2022-11-13T15:04:47.270Z,4.90
2022-11-13T15:07:20.666Z,4.05
2022-11-13T15:09:47.917Z,4.05
2022-11-13T15:12:15.153Z,4.82
2022-11-13T15:14:42.395Z,5.03
2022-11-13T15:17:13.881Z,4.63
2022-11-13T15:19:40.969Z,3.08
2022-11-13T15:22:30.290Z,5.93
2022-11-13T15:24:57.834Z,6.53
2022-11-13T15:27:24.969Z,6.20
2022-11-13T15:29:52.131Z,8.20
2022-11-13T15:32:19.215Z,7.00
2022-11-13T15:34:46.565Z,6.85
2022-11-13T15:37:14.626Z,9.02
2022-11-13T15:39:41.761Z,9.88
2022-11-13T15:42:12.608Z,10.32
2022-11-13T15:44:40.691Z,8.25
2022-11-13T15:47:40.330Z,12.15
2022-11-13T15:50:16.060Z,11.05
2022-11-13T15:52:45.678Z,11.00
2022-11-13T15:55:25.487Z,31.90
2022-11-13T15:57:53.093Z,11.70
2022-11-13T16:00:21.564Z,10.80
2022-11-13T16:02:52.110Z,9.95
2022-11-13T16:05:19.237Z,8.60
2022-11-13T16:07:46.898Z,12.07
2022-11-13T16:13:53.555Z,13.60
2022-11-13T16:16:29.234Z,8.10
2022-11-13T16:19:00.215Z,7.63
2022-11-13T16:21:28.750Z,7.15
2022-11-13T16:23:55.818Z,8.43
2022-11-13T16:26:24.850Z,11.05
2022-11-13T16:29:12.719Z,10.02
2022-11-13T16:31:39.646Z,6.05
2022-11-13T16:34:06.893Z,8.27
2022-11-13T16:36:34.236Z,8.98
2022-11-13T16:39:01.381Z,20.85
2022-11-13T16:41:28.502Z,17.70
2022-11-13T16:43:55.583Z,21.98
2022-11-13T16:46:28.830Z,14.85
2022-11-13T16:48:56.021Z,7.75
2022-11-13T16:51:23.270Z,7.53
2022-11-13T16:53:50.401Z,7.32
2022-11-13T16:56:20.062Z,7.30
2022-11-13T16:58:47.149Z,7.18
2022-11-13T17:01:16.638Z,6.97
2022-11-13T17:03:44.687Z,6.60
2022-11-13T17:06:20.746Z,8.63
2022-11-13T17:08:51.546Z,6.57
2022-11-13T17:11:19.030Z,6.57
2022-11-13T17:13:52.524Z,7.82
2022-11-13T17:16:20.109Z,8.52
2022-11-13T17:18:52.043Z,7.43
2022-11-13T17:21:19.560Z,6.00
2022-11-13T17:23:47.058Z,7.63
2022-11-13T17:26:14.485Z,8.50
2022-11-13T17:28:41.549Z,10.27
2022-11-13T17:31:12.625Z,8.50
2022-11-13T17:33:40.262Z,11.77
2022-11-13T17:36:09.019Z,9.68
2022-11-13T17:38:37.522Z,10.38
2022-11-13T17:41:05.938Z,13.35
2022-11-13T17:43:34.828Z,16.10
2022-11-13T17:46:01.894Z,17.70
2022-11-13T17:48:31.601Z,17.95
2022-11-13T17:50:59.401Z,22.00
2022-11-13T17:53:27.265Z,22.02
2022-11-13T17:55:58.978Z,22.95
2022-11-13T17:58:27.227Z,20.63
2022-11-13T18:00:54.638Z,18.13
2022-11-13T18:03:21.778Z,17.13
2022-11-13T18:05:48.913Z,18.17
2022-11-13T18:08:16.245Z,17.95
2022-11-13T18:10:43.352Z,22.42
2022-11-13T18:13:10.613Z,19.15
2022-11-13T18:15:38.984Z,20.27
2022-11-13T18:18:06.901Z,37.22
2022-11-13T18:20:35.092Z,40.60
2022-11-13T18:23:02.437Z,33.85
2022-11-13T18:25:29.539Z,34.58
2022-11-13T18:27:56.726Z,25.48
2022-11-13T18:30:23.867Z,27.67
2022-11-13T18:32:51.029Z,34.58
2022-11-13T18:35:18.131Z,32.05
2022-11-13T18:37:45.247Z,30.75
2022-11-13T18:40:12.353Z,33.65
2022-11-13T18:42:39.433Z,30.48
2022-11-13T18:45:07.107Z,32.05
2022-11-13T18:47:34.195Z,29.60
2022-11-13T18:50:01.278Z,33.00
2022-11-13T18:52:28.406Z,30.15
2022-11-13T18:54:55.474Z,32.58
2022-11-13T18:57:22.568Z,27.42
2022-11-13T18:59:49.647Z,28.83
2022-11-13T19:02:16.887Z,26.85
2022-11-13T19:04:44.607Z,26.90
2022-11-13T19:07:12.400Z,29.95
2022-11-13T19:09:44.902Z,31.70
2022-11-13T19:12:12.245Z,31.70
2022-11-13T19:14:39.433Z,28.77
2022-11-13T19:17:06.637Z,28.42
2022-11-13T19:19:33.734Z,28.48
2022-11-13T19:22:00.824Z,27.85
2022-11-13T19:24:27.995Z,26.70
2022-11-13T19:26:55.103Z,27.42
2022-11-13T19:29:22.209Z,26.80
2022-11-13T19:31:49.977Z,25.35
2022-11-13T19:34:17.162Z,25.00
2022-11-13T19:36:46.300Z,25.20
2022-11-13T19:39:13.669Z,27.55
2022-11-13T19:41:40.786Z,27.65
2022-11-13T19:44:09.727Z,28.10
2022-11-13T19:46:36.822Z,26.45
2022-11-13T19:49:04.148Z,27.20
2022-11-13T19:51:31.234Z,33.25
2022-11-13T19:53:59.511Z,31.58
2022-11-13T19:56:28.501Z,28.63
2022-11-13T19:58:56.145Z,31.50
2022-11-13T20:01:27.315Z,28.02
2022-11-13T20:03:55.250Z,33.13
2022-11-13T20:06:22.466Z,31.95
2022-11-13T20:08:49.712Z,32.03
2022-11-13T20:11:17.075Z,34.25
2022-11-13T20:13:44.474Z,43.92
2022-11-13T20:16:12.813Z,31.35
2022-11-13T20:18:40.384Z,40.40
2022-11-13T20:21:07.583Z,30.45
2022-11-13T20:23:35.407Z,31.65
2022-11-13T20:26:04.086Z,37.83
2022-11-13T20:28:32.179Z,32.30
2022-11-13T20:31:02.902Z,28.83
2022-11-13T20:33:31.833Z,25.63
2022-11-13T20:35:58.887Z,28.70
2022-11-13T20:38:26.196Z,29.52
2022-11-13T20:40:53.591Z,31.40
2022-11-13T20:43:20.670Z,28.08
2022-11-13T20:45:47.831Z,28.02
2022-11-13T20:48:14.993Z,23.65
2022-11-13T20:50:42.122Z,21.15
2022-11-13T20:53:09.218Z,22.90
2022-11-13T20:55:36.392Z,22.15
2022-11-13T20:58:03.486Z,21.10
2022-11-13T21:00:30.575Z,22.25
2022-11-13T21:02:57.802Z,24.40
2022-11-13T21:05:24.901Z,21.45
2022-11-13T21:07:52.074Z,23.20
2022-11-13T21:10:19.233Z,27.38
2022-11-13T21:12:46.328Z,25.80
2022-11-13T21:15:13.546Z,26.23
2022-11-13T21:17:40.677Z,24.65
2022-11-13T21:20:08.126Z,21.80
2022-11-13T21:22:35.204Z,22.98
2022-11-13T21:25:02.272Z,23.88
2022-11-13T21:27:29.356Z,19.65
2022-11-13T21:29:56.680Z,17.55
2022-11-13T21:32:23.807Z,17.35
2022-11-13T21:34:53.845Z,17.48
2022-11-13T21:37:20.989Z,19.33
2022-11-13T21:39:48.107Z,17.38
2022-11-13T21:42:15.232Z,17.15
2022-11-13T21:44:42.495Z,16.95
2022-11-13T21:47:12.308Z,16.65
2022-11-13T21:49:39.402Z,20.38
2022-11-13T21:52:06.599Z,15.63
2022-11-13T21:54:33.715Z,19.70
2022-11-13T21:57:00.841Z,18.27
2022-11-13T21:59:27.924Z,20.02
2022-11-13T22:01:55.285Z,19.67
2022-11-13T22:04:22.471Z,20.63
2022-11-13T22:06:50.094Z,20.42
2022-11-13T22:09:18.840Z,18.63
2022-11-13T22:11:45.912Z,24.35
2022-11-13T22:14:13.229Z,25.30
2022-11-13T22:16:41.700Z,28.75
2022-11-13T22:19:12.933Z,27.95
2022-11-13T22:21:40.211Z,33.22
2022-11-13T22:24:07.776Z,31.90
2022-11-13T22:26:37.045Z,30.10
2022-11-13T22:29:04.281Z,34.10
2022-11-13T22:31:32.196Z,34.05
2022-11-13T22:33:59.524Z,29.40
2022-11-13T22:36:27.472Z,28.67
2022-11-13T22:38:54.574Z,29.75
2022-11-13T22:41:23.821Z,28.73
2022-11-13T22:43:52.850Z,29.60
2022-11-13T22:46:21.273Z,32.50
2022-11-13T22:48:49.470Z,28.80
2022-11-13T22:51:41.040Z,30.42
2022-11-13T22:54:09.434Z,27.85
2022-11-13T22:56:37.172Z,29.00
2022-11-13T22:59:05.378Z,31.58
2022-11-13T23:01:33.661Z,31.83
2022-11-13T23:04:02.085Z,29.38
2022-11-13T23:06:30.046Z,29.48
2022-11-13T23:08:57.454Z,28.45
2022-11-13T23:11:27.643Z,30.05
2022-11-13T23:13:56.469Z,30.45
2022-11-13T23:16:24.121Z,28.35
2022-11-13T23:18:51.891Z,28.27
2022-11-13T23:21:19.422Z,27.42
2022-11-13T23:23:46.697Z,29.48
2022-11-13T23:26:14.130Z,30.02
2022-11-13T23:28:41.537Z,33.25
2022-11-13T23:31:08.961Z,31.52
2022-11-13T23:33:36.421Z,37.05
2022-11-13T23:36:03.600Z,37.17
2022-11-13T23:38:31.301Z,39.28
2022-11-13T23:40:59.389Z,42.42
2022-11-13T23:43:47.702Z,41.42
2022-11-13T23:46:14.212Z,46.13
2022-11-13T23:48:41.292Z,42.67
2022-11-13T23:51:08.393Z,50.80
2022-11-13T23:53:35.495Z,43.40
2022-11-13T23:56:02.574Z,47.53
2022-11-13T23:58:31.861Z,57.47
